createdAt,value
2022-10-03T00:01:05.735Z,97967.39
2022-10-03T00:03:54.818Z,97965.70
2022-10-03T00:06:40.282Z,97967.82
2022-10-03T00:09:11.532Z,97960.69
2022-10-03T00:11:47.194Z,97956.62
2022-10-03T00:14:35.698Z,97959.92
2022-10-03T00:17:02.341Z,97953.48
2022-10-03T00:19:47.850Z,97950.00
2022-10-03T00:22:26.645Z,97952.13
2022-10-03T00:25:05.393Z,97948.38
2022-10-03T00:27:46.175Z,97944.26
2022-10-03T00:30:16.994Z,97941.59
2022-10-03T00:33:05.021Z,97944.31
2022-10-03T00:35:53.965Z,97942.25
2022-10-03T00:38:40.415Z,97938.77
2022-10-03T00:41:19.589Z,97934.71
2022-10-03T00:43:52.089Z,97931.27
2022-10-03T00:46:37.461Z,97937.69
2022-10-03T00:49:15.353Z,97942.29
2022-10-03T00:52:15.154Z,97940.12
2022-10-03T00:54:55.041Z,97932.46
2022-10-03T00:57:40.483Z,97933.88
2022-10-03T01:00:27.348Z,97926.84
2022-10-03T01:03:12.590Z,97927.38
2022-10-03T01:05:56.762Z,97924.34
2022-10-03T01:08:46.889Z,97926.35
2022-10-03T01:11:22.634Z,97925.92
2022-10-03T01:14:24.694Z,97925.31
2022-10-03T01:17:06.190Z,97925.59
2022-10-03T01:19:43.286Z,97922.77
2022-10-03T01:22:31.510Z,97921.80
2022-10-03T01:25:02.187Z,97920.48
2022-10-03T01:28:13.787Z,97916.48
2022-10-03T01:30:47.698Z,97921.20
2022-10-03T01:33:24.643Z,97922.71
2022-10-03T01:35:55.438Z,97925.64
2022-10-03T01:38:40.652Z,97924.54
2022-10-03T01:41:22.588Z,97923.05
2022-10-03T01:43:51.695Z,97927.06
2022-10-03T01:46:21.882Z,97921.63
2022-10-03T01:48:52.392Z,97924.88
2022-10-03T01:51:21.546Z,97925.95
2022-10-03T01:54:07.308Z,97919.39
2022-10-03T01:56:41.527Z,97922.65
2022-10-03T01:59:13.582Z,97926.45
2022-10-03T02:02:28.311Z,97924.88
2022-10-03T02:05:07.830Z,97921.56
2022-10-03T02:07:43.089Z,97928.71
2022-10-03T02:10:27.820Z,97925.52
2022-10-03T02:13:14.870Z,97922.96
2022-10-03T02:15:54.569Z,97921.66
2022-10-03T02:18:40.202Z,97918.90
2022-10-03T02:21:09.745Z,97914.73
2022-10-03T02:23:36.432Z,97915.91
2022-10-03T02:26:18.229Z,97913.23
2022-10-03T02:29:15.448Z,97918.91
2022-10-03T02:32:00.616Z,97919.73
2022-10-03T02:34:36.265Z,97923.89
2022-10-03T02:37:31.382Z,97922.43
2022-10-03T02:40:10.897Z,97917.82
2022-10-03T02:42:50.679Z,97919.02
2022-10-03T02:45:32.652Z,97919.70
2022-10-03T02:48:30.685Z,97918.73
2022-10-03T02:51:00.753Z,97917.74
2022-10-03T02:53:38.384Z,97910.05
2022-10-03T02:56:14.219Z,97910.91
2022-10-03T02:58:40.922Z,97912.39
2022-10-03T03:01:22.781Z,97914.02
2022-10-03T03:04:04.759Z,97908.81
2022-10-03T03:06:54.324Z,97911.20
2022-10-03T03:09:36.199Z,97895.63
2022-10-03T03:12:40.492Z,97904.58
2022-10-03T03:15:42.105Z,97914.60
2022-10-03T03:18:12.255Z,97915.42
2022-10-03T03:21:04.546Z,97907.51
2022-10-03T03:23:39.664Z,97909.63
2022-10-03T03:27:08.081Z,97905.07
2022-10-03T03:30:05.582Z,97902.59
2022-10-03T03:32:47.352Z,97908.80
2022-10-03T03:35:26.132Z,97903.71
2022-10-03T03:38:04.817Z,97902.95
2022-10-03T03:40:45.258Z,97899.15
2022-10-03T03:43:22.624Z,97898.93
2022-10-03T03:45:55.540Z,97903.92
2022-10-03T03:48:43.591Z,97908.85
2022-10-03T03:51:22.019Z,97907.84
2022-10-03T03:53:51.634Z,97905.40
2022-10-03T03:56:26.641Z,97899.98
2022-10-03T03:59:06.960Z,97900.48
2022-10-03T04:01:46.809Z,97904.11
2022-10-03T04:04:44.197Z,97904.16
2022-10-03T04:07:33.704Z,97907.33
2022-10-03T04:10:42.375Z,97907.34
2022-10-03T04:13:27.453Z,97913.21
2022-10-03T04:16:00.487Z,97915.66
2022-10-03T04:18:59.034Z,97909.81
2022-10-03T04:21:28.802Z,97906.08
2022-10-03T04:24:14.230Z,97900.98
2022-10-03T04:26:53.184Z,97893.55
2022-10-03T04:29:29.155Z,97894.47
2022-10-03T04:32:18.468Z,97894.95
2022-10-03T04:35:14.383Z,97894.46
2022-10-03T04:38:12.073Z,97894.89
2022-10-03T04:40:51.080Z,97893.75
2022-10-03T04:43:34.917Z,97891.70
2022-10-03T04:46:22.559Z,97887.20
2022-10-03T04:48:56.468Z,97883.95
2022-10-03T04:51:55.536Z,97885.30
2022-10-03T04:54:27.714Z,97882.75
2022-10-03T04:57:00.455Z,97891.10
2022-10-03T04:59:42.340Z,97890.34
2022-10-03T05:02:25.782Z,97871.67
2022-10-03T05:05:04.612Z,97873.19
2022-10-03T05:07:46.095Z,97860.48
2022-10-03T05:10:35.916Z,97854.32
2022-10-03T05:13:12.051Z,97869.98
2022-10-03T05:16:02.186Z,97866.77
2022-10-03T05:18:58.348Z,97858.49
2022-10-03T05:21:37.166Z,97859.49
2022-10-03T05:24:22.035Z,97853.36
2022-10-03T05:27:19.594Z,97862.83
2022-10-03T05:29:58.181Z,97868.58
2022-10-03T05:32:41.444Z,97863.68
2022-10-03T05:35:42.319Z,97855.98
2022-10-03T05:38:34.225Z,97860.29
2022-10-03T05:41:20.655Z,97858.85
2022-10-03T05:44:15.665Z,97849.11
2022-10-03T05:46:57.696Z,97855.60
2022-10-03T05:49:27.414Z,97859.73
2022-10-03T05:52:35.975Z,97852.31
2022-10-03T05:55:26.741Z,97855.84
2022-10-03T05:58:24.233Z,97857.84
2022-10-03T06:00:58.872Z,97858.61
2022-10-03T06:03:44.109Z,97859.77
2022-10-03T06:06:26.437Z,97865.98
2022-10-03T06:09:12.072Z,97863.27
2022-10-03T06:11:54.115Z,97868.16
2022-10-03T06:14:34.906Z,97870.17
2022-10-03T06:17:13.694Z,97867.45
2022-10-03T06:19:49.850Z,97871.23
2022-10-03T06:22:44.571Z,97875.03
2022-10-03T06:25:46.695Z,97870.61
2022-10-03T06:28:28.492Z,97873.05
2022-10-03T06:31:14.148Z,97877.56
2022-10-03T06:34:03.068Z,97881.10
2022-10-03T06:36:45.165Z,97882.65
2022-10-03T06:39:30.347Z,97887.13
2022-10-03T06:42:19.040Z,97889.66
2022-10-03T06:45:09.896Z,97898.04
2022-10-03T06:47:51.786Z,97901.98
2022-10-03T06:50:36.738Z,97905.84
2022-10-03T06:56:08.777Z,97905.81
2022-10-03T06:58:58.415Z,97907.98
2022-10-03T07:01:50.807Z,97913.84
2022-10-03T07:04:34.321Z,97918.23
2022-10-03T07:07:25.807Z,97918.77
2022-10-03T07:10:13.784Z,97916.33
2022-10-03T07:12:44.906Z,97919.40
2022-10-03T07:15:43.913Z,97923.44
2022-10-03T07:18:29.457Z,97922.52
2022-10-03T07:21:18.013Z,97921.84
2022-10-03T07:24:10.134Z,97932.14
2022-10-03T07:26:46.029Z,97926.42
2022-10-03T07:29:35.130Z,97928.20
2022-10-03T07:32:26.236Z,97927.16
2022-10-03T07:35:20.829Z,97928.77
2022-10-03T07:38:43.877Z,97923.08
2022-10-03T07:41:28.075Z,97927.23
2022-10-03T07:44:33.521Z,97926.89
2022-10-03T07:47:22.826Z,97925.21
2022-10-03T07:50:14.922Z,97922.13
2022-10-03T07:52:54.172Z,97922.98
2022-10-03T07:56:05.975Z,97925.95
2022-10-03T07:58:54.403Z,97926.52
2022-10-03T08:01:33.017Z,97922.67
2022-10-03T08:04:30.798Z,97925.39
2022-10-03T08:07:20.563Z,97921.13
2022-10-03T08:10:00.412Z,97922.09
2022-10-03T08:12:30.221Z,97919.29
2022-10-03T08:15:28.028Z,97920.17
2022-10-03T08:18:00.668Z,97916.88
2022-10-03T08:20:43.119Z,97920.70
2022-10-03T08:23:18.794Z,97922.52
2022-10-03T08:26:11.209Z,97924.43
2022-10-03T08:29:08.762Z,97917.50
2022-10-03T08:31:52.650Z,97921.60
2022-10-03T08:34:49.870Z,97923.97
2022-10-03T08:37:28.598Z,97922.23
2022-10-03T08:40:46.862Z,97921.61
2022-10-03T08:43:35.381Z,97925.48
2022-10-03T08:46:02.101Z,97934.70
2022-10-03T08:48:50.203Z,97936.25
2022-10-03T08:51:45.427Z,97933.48
2022-10-03T08:54:22.730Z,97933.91
2022-10-03T08:57:01.294Z,97933.69
2022-10-03T09:00:01.665Z,97930.23
2022-10-03T09:03:31.834Z,97936.16
2022-10-03T09:06:10.431Z,97940.73
2022-10-03T09:08:50.801Z,97944.73
2022-10-03T09:11:38.339Z,97944.65
2022-10-03T09:14:11.046Z,97939.60
2022-10-03T09:17:06.345Z,97941.08
2022-10-03T09:19:52.440Z,97942.44
2022-10-03T09:22:25.207Z,97939.27
2022-10-03T09:24:55.391Z,97940.73
2022-10-03T09:27:35.536Z,97943.94
2022-10-03T09:30:18.090Z,97945.23
2022-10-03T09:33:09.661Z,97943.80
2022-10-03T09:36:00.757Z,97946.65
2022-10-03T09:38:46.287Z,97944.54
2022-10-03T09:41:34.981Z,97947.58
2022-10-03T09:44:37.370Z,97944.37
2022-10-03T09:47:22.719Z,97949.31
2022-10-03T09:49:55.335Z,97949.40
2022-10-03T09:52:27.079Z,97954.45
2022-10-03T09:55:34.227Z,97950.38
2022-10-03T09:58:13.083Z,97952.82
2022-10-03T10:01:17.179Z,97947.39
2022-10-03T10:03:46.827Z,97949.08
2022-10-03T10:06:39.329Z,97953.28
2022-10-03T10:09:22.052Z,97954.30
2022-10-03T10:12:16.354Z,97955.64
2022-10-03T10:14:53.744Z,97962.91
2022-10-03T10:17:38.985Z,97962.32
2022-10-03T10:20:36.377Z,97960.81
2022-10-03T10:23:07.705Z,97960.05
2022-10-03T10:25:42.461Z,97958.91
2022-10-03T10:28:31.322Z,97959.02
2022-10-03T10:31:16.418Z,97959.36
2022-10-03T10:33:52.237Z,97959.91
2022-10-03T10:36:56.507Z,97964.56
2022-10-03T10:39:48.356Z,97965.00
2022-10-03T10:42:46.440Z,97966.02
2022-10-03T10:45:25.338Z,97965.11
2022-10-03T10:48:13.958Z,97968.48
2022-10-03T10:50:43.568Z,97967.87
2022-10-03T10:53:47.920Z,97966.50
2022-10-03T10:56:56.271Z,97968.83
2022-10-03T10:59:53.755Z,97968.95
2022-10-03T11:02:29.758Z,97974.30
2022-10-03T11:05:34.526Z,97975.85
2022-10-03T11:08:22.579Z,97981.03
2022-10-03T11:11:07.653Z,97979.35
2022-10-03T11:13:55.908Z,97984.52
2022-10-03T11:16:41.760Z,97982.56
2022-10-03T11:19:27.026Z,97981.30
2022-10-03T11:22:18.383Z,97976.46
2022-10-03T11:25:07.587Z,97982.30
2022-10-03T11:28:28.670Z,97977.86
2022-10-03T11:31:10.692Z,97983.77
2022-10-03T11:33:58.534Z,97988.05
2022-10-03T11:36:41.834Z,97992.52
2022-10-03T11:39:36.308Z,97994.79
2022-10-03T11:42:28.476Z,97984.29
2022-10-03T11:45:02.496Z,97980.86
2022-10-03T11:47:41.549Z,97983.85
2022-10-03T11:50:40.969Z,97987.16
2022-10-03T11:53:31.751Z,97988.58
2022-10-03T11:56:27.848Z,97991.18
2022-10-03T11:59:12.751Z,97996.42
2022-10-03T12:02:04.712Z,98001.13
2022-10-03T12:05:07.279Z,97993.10
2022-10-03T12:08:05.175Z,97997.20
2022-10-03T12:10:47.518Z,97999.12
2022-10-03T12:13:17.316Z,97992.21
2022-10-03T12:15:46.928Z,97991.55
2022-10-03T12:18:29.937Z,97983.86
2022-10-03T12:21:07.524Z,97981.96
2022-10-03T12:23:51.981Z,97982.31
2022-10-03T12:26:28.960Z,97982.27
2022-10-03T12:28:55.638Z,97985.84
2022-10-03T12:31:26.376Z,97981.69
2022-10-03T12:34:08.666Z,97979.23
2022-10-03T12:36:54.115Z,97981.58
2022-10-03T12:39:30.207Z,97987.45
2022-10-03T12:42:11.389Z,98000.75
2022-10-03T12:45:01.162Z,98002.64
2022-10-03T12:47:56.117Z,98000.39
2022-10-03T12:50:44.677Z,97995.96
2022-10-03T12:53:38.860Z,97993.98
2022-10-03T12:56:16.061Z,97989.02
2022-10-03T12:58:42.685Z,97985.13
2022-10-03T13:01:33.996Z,97983.63
2022-10-03T13:04:20.327Z,97980.73
2022-10-03T13:07:08.969Z,97983.02
2022-10-03T13:09:52.621Z,97979.95
2022-10-03T13:12:40.908Z,97980.64
2022-10-03T13:15:44.401Z,97986.06
2022-10-03T13:18:35.350Z,97981.48
2022-10-03T13:21:44.512Z,97982.46
2022-10-03T13:24:20.480Z,97986.84
2022-10-03T13:27:21.511Z,98010.58
2022-10-03T13:29:50.856Z,98002.65
2022-10-03T13:32:18.983Z,98000.16
2022-10-03T13:35:32.413Z,97997.20
2022-10-03T13:38:13.022Z,97992.08
2022-10-03T13:40:43.426Z,97991.11
2022-10-03T13:43:13.639Z,97984.61
2022-10-03T13:45:44.303Z,97983.88
2022-10-03T13:48:14.074Z,97983.20
2022-10-03T13:51:06.606Z,97979.52
2022-10-03T13:54:00.149Z,97981.36
2022-10-03T13:56:39.476Z,97979.50
2022-10-03T13:59:24.915Z,97981.84
2022-10-03T14:02:08.414Z,97979.39
2022-10-03T14:05:03.215Z,97979.79
2022-10-03T14:07:48.656Z,97974.48
2022-10-03T14:10:42.083Z,97975.66
2022-10-03T14:13:33.534Z,97970.30
2022-10-03T14:16:06.448Z,97969.77
2022-10-03T14:18:45.265Z,97970.56
2022-10-03T14:21:23.210Z,97971.04
2022-10-03T14:23:55.110Z,97973.99
2022-10-03T14:26:48.230Z,97978.80
2022-10-03T14:29:37.085Z,97977.24
2022-10-03T14:32:45.735Z,97974.59
2022-10-03T14:35:24.675Z,97969.84
2022-10-03T14:37:53.706Z,97970.48
2022-10-03T14:40:27.957Z,97970.21
2022-10-03T14:42:59.700Z,97969.02
2022-10-03T14:45:53.507Z,97970.43
2022-10-03T14:48:37.527Z,97966.48
2022-10-03T14:51:29.822Z,97966.33
2022-10-03T14:54:02.489Z,97973.03
2022-10-03T14:56:31.020Z,97977.79
2022-10-03T14:58:58.955Z,97972.36
2022-10-03T15:01:26.105Z,97972.58
2022-10-03T15:04:04.426Z,97972.97
2022-10-03T15:06:46.181Z,97974.96
2022-10-03T15:09:16.914Z,97979.13
2022-10-03T15:11:49.050Z,97976.84
2022-10-03T15:14:15.879Z,97977.46
2022-10-03T15:16:47.868Z,97978.90
2022-10-03T15:19:19.175Z,97982.36
2022-10-03T15:21:46.581Z,97985.45
2022-10-03T15:24:23.149Z,97983.87
2022-10-03T15:26:55.759Z,97982.02
2022-10-03T15:29:23.208Z,97979.52
2022-10-03T15:31:49.991Z,97977.50
2022-10-03T15:34:29.332Z,97974.74
2022-10-03T15:36:58.294Z,97975.80
2022-10-03T15:39:30.571Z,97971.76
2022-10-03T15:42:09.446Z,97971.98
2022-10-03T15:44:40.159Z,97973.02
2022-10-03T15:47:29.406Z,97969.20
2022-10-03T15:50:28.879Z,97970.95
2022-10-03T15:53:17.888Z,97970.30
2022-10-03T15:55:52.124Z,97967.02
2022-10-03T15:58:37.847Z,97968.08
2022-10-03T16:01:21.044Z,97969.88
2022-10-03T16:03:55.743Z,97965.05
2022-10-03T16:06:47.723Z,97962.48
2022-10-03T16:09:32.996Z,97962.60
2022-10-03T16:12:18.473Z,97962.38
2022-10-03T16:14:56.011Z,97962.83
2022-10-03T16:17:39.539Z,97960.98
2022-10-03T16:20:13.427Z,97963.45
2022-10-03T16:22:49.804Z,97967.93
2022-10-03T16:25:18.394Z,97974.19
2022-10-03T16:27:58.827Z,97974.39
2022-10-03T16:30:31.452Z,97986.40
2022-10-03T16:33:02.950Z,97989.30
2022-10-03T16:35:33.502Z,97991.60
2022-10-03T16:38:00.823Z,97995.75
2022-10-03T16:40:27.499Z,97994.45
2022-10-03T16:42:55.823Z,97997.27
2022-10-03T16:45:38.401Z,97994.77
2022-10-03T16:48:31.327Z,97995.52
2022-10-03T16:50:58.011Z,97991.59
2022-10-03T16:53:24.658Z,97988.03
2022-10-03T16:55:57.882Z,97988.42
2022-10-03T16:58:29.438Z,97989.48
2022-10-03T17:01:26.885Z,97986.41
2022-10-03T17:03:59.954Z,97977.13
2022-10-03T17:06:31.299Z,97973.68
2022-10-03T17:08:59.591Z,97970.67
2022-10-03T17:11:27.524Z,97969.19
2022-10-03T17:13:59.765Z,97967.80
2022-10-03T17:16:34.024Z,97964.26
2022-10-03T17:19:18.368Z,97964.94
2022-10-03T17:21:53.844Z,97965.52
2022-10-03T17:24:25.149Z,97967.83
2022-10-03T17:26:52.680Z,97964.99
2022-10-03T17:29:36.040Z,97962.71
2022-10-03T17:32:15.334Z,97965.41
2022-10-03T17:34:58.645Z,97964.30
2022-10-03T17:37:46.975Z,97964.48
2022-10-03T17:40:33.914Z,97962.03
2022-10-03T17:43:06.413Z,97961.95
2022-10-03T17:45:47.505Z,97966.70
2022-10-03T17:48:14.232Z,97957.91
2022-10-03T17:51:10.358Z,97959.46
2022-10-03T17:53:37.115Z,97960.23
2022-10-03T17:56:09.388Z,97959.52
2022-10-03T17:58:36.284Z,97961.61
2022-10-03T18:01:10.405Z,97960.21
2022-10-03T18:04:03.532Z,97965.34
2022-10-03T18:06:34.368Z,97969.46
2022-10-03T18:09:07.772Z,97972.55
2022-10-03T18:11:35.246Z,97977.33
2022-10-03T18:14:11.461Z,97976.55
2022-10-03T18:16:39.029Z,97982.80
2022-10-03T18:19:22.016Z,97990.55
2022-10-03T18:22:02.537Z,98024.20
2022-10-03T18:25:36.142Z,98048.12
2022-10-03T18:28:14.686Z,98060.37
2022-10-03T18:30:59.752Z,98073.92
2022-10-03T18:33:31.560Z,98081.64
2022-10-03T18:35:58.272Z,98088.81
2022-10-03T18:38:25.130Z,98095.47
2022-10-03T18:40:56.043Z,98093.92
2022-10-03T18:43:31.288Z,98097.68
2022-10-03T18:46:07.778Z,98100.16
2022-10-03T18:48:39.275Z,98105.45
2022-10-03T18:51:13.881Z,98112.27
2022-10-03T18:53:49.792Z,98117.17
2022-10-03T18:56:24.094Z,98121.20
2022-10-03T18:58:50.756Z,98126.60
2022-10-03T19:01:40.143Z,98124.64
2022-10-03T19:04:13.162Z,98129.45
2022-10-03T19:06:45.129Z,98129.97
2022-10-03T19:09:22.553Z,98137.54
2022-10-03T19:13:00.730Z,98147.80
2022-10-03T19:15:42.809Z,98153.84
2022-10-03T19:18:21.044Z,98156.55
2022-10-03T19:20:56.903Z,98165.06
2022-10-03T19:23:27.558Z,98166.73
2022-10-03T19:25:59.151Z,98174.50
2022-10-03T19:28:28.291Z,98174.66
2022-10-03T19:31:24.727Z,98174.45
2022-10-03T19:33:53.234Z,98177.93
2022-10-03T19:36:22.254Z,98178.73
2022-10-03T19:38:49.073Z,98181.20
2022-10-03T19:41:29.651Z,98186.45
2022-10-03T19:43:57.192Z,98197.02
2022-10-03T19:46:48.351Z,98199.45
2022-10-03T19:49:33.682Z,98202.44
2022-10-03T19:52:19.896Z,98202.48
2022-10-03T19:55:01.796Z,98203.48
2022-10-03T19:57:37.197Z,98208.08
2022-10-03T20:00:07.790Z,98208.29
2022-10-03T20:02:40.273Z,98219.06
2022-10-03T20:05:07.138Z,98216.34
2022-10-03T20:07:44.460Z,98222.14
2022-10-03T20:10:32.931Z,98225.09
2022-10-03T20:13:03.687Z,98227.45
2022-10-03T20:15:49.769Z,98225.86
2022-10-03T20:18:29.780Z,98228.63
2022-10-03T20:20:57.190Z,98231.66
2022-10-03T20:23:25.705Z,98236.41
2022-10-03T20:26:01.604Z,98239.77
2022-10-03T20:28:37.981Z,98242.44
2022-10-03T20:31:04.856Z,98238.82
2022-10-03T20:33:31.829Z,98243.26
2022-10-03T20:36:10.308Z,98248.35
2022-10-03T20:39:01.476Z,98251.22
2022-10-03T20:41:43.542Z,98246.73
2022-10-03T20:44:29.639Z,98247.36
2022-10-03T20:47:07.148Z,98248.17
2022-10-03T20:49:48.417Z,98255.76
2022-10-03T20:52:19.739Z,98250.45
2022-10-03T20:54:46.423Z,98247.45
2022-10-03T20:57:26.791Z,98249.84
2022-10-03T21:00:29.177Z,98252.33
2022-10-03T21:03:07.495Z,98251.27
2022-10-03T21:05:35.794Z,98250.10
2022-10-03T21:08:12.357Z,98252.52
2022-10-03T21:10:44.763Z,98257.11
2022-10-03T21:13:31.235Z,98253.58
2022-10-03T21:15:58.079Z,98254.82
2022-10-03T21:18:31.655Z,98254.05
2022-10-03T21:21:07.349Z,98256.55
2022-10-03T21:23:41.462Z,98258.71
2022-10-03T21:26:08.154Z,98261.53
2022-10-03T21:28:36.227Z,98262.73
2022-10-03T21:31:27.792Z,98263.44
2022-10-03T21:34:25.329Z,98263.70
2022-10-03T21:37:10.333Z,98264.67
2022-10-03T21:40:15.544Z,98268.45
2022-10-03T21:42:53.630Z,98267.16
2022-10-03T21:45:40.418Z,98268.35
2022-10-03T21:48:24.941Z,98274.86
2022-10-03T21:50:59.791Z,98274.34
2022-10-03T21:53:47.964Z,98277.05
2022-10-03T21:56:27.965Z,98281.00
2022-10-03T21:59:01.203Z,98284.80
2022-10-03T22:01:52.003Z,98287.55
2022-10-03T22:04:39.688Z,98280.46
2022-10-03T22:07:09.313Z,98282.09
2022-10-03T22:09:36.448Z,98279.92
2022-10-03T22:12:05.777Z,98283.94
2022-10-03T22:15:03.195Z,98282.05
2022-10-03T22:17:39.752Z,98282.59
2022-10-03T22:20:21.738Z,98286.45
2022-10-03T22:22:51.373Z,98285.95
2022-10-03T22:25:25.925Z,98282.41
2022-10-03T22:28:37.074Z,98282.70
2022-10-03T22:31:33.922Z,98282.36
2022-10-03T22:34:06.452Z,98286.17
2022-10-03T22:36:36.270Z,98292.56
2022-10-03T22:39:08.304Z,98296.77
2022-10-03T22:41:34.997Z,98294.66
2022-10-03T22:44:01.851Z,98297.52
2022-10-03T22:46:29.525Z,98298.77
2022-10-03T22:49:00.960Z,98304.71
2022-10-03T22:51:27.698Z,98305.18
2022-10-03T22:53:58.449Z,98309.89
2022-10-03T22:56:41.413Z,98319.91
2022-10-03T22:59:10.916Z,98321.09
2022-10-03T23:01:37.816Z,98325.21
2022-10-03T23:04:05.460Z,98324.44
2022-10-03T23:06:49.796Z,98322.62
2022-10-03T23:09:48.700Z,98324.18
2022-10-03T23:12:15.395Z,98321.73
2022-10-03T23:14:45.162Z,98324.60
2022-10-03T23:17:23.427Z,98327.61
2022-10-03T23:20:28.029Z,98329.56
2022-10-03T23:22:56.210Z,98329.48
2022-10-03T23:25:53.841Z,98331.52
2022-10-03T23:28:52.514Z,98333.75
2022-10-03T23:31:58.862Z,98334.67
2022-10-03T23:34:34.499Z,98338.73
2022-10-03T23:37:14.073Z,98335.44
2022-10-03T23:39:44.562Z,98334.67
2022-10-03T23:42:26.861Z,98332.52
2022-10-03T23:44:56.142Z,98328.44
2022-10-03T23:48:04.114Z,98333.48
2022-10-03T23:50:50.153Z,98335.52
2022-10-03T23:53:29.860Z,98330.73
2022-10-03T23:55:58.970Z,98336.43
2022-10-03T23:58:30.564Z,98337.29
